sensor_id;sensor_type;location;lat;lon;timestamp;P1;P2;P0
69746;PMS7003;57018;50.278;19.134;2022-11-21T00:00:23;68.00;55.00;31.00
69746;PMS7003;57018;50.278;19.134;2022-11-21T00:02:49;71.00;55.00;35.00
69746;PMS7003;57018;50.278;19.134;2022-11-21T00:05:16;62.50;50.50;30.25
69746;PMS7003;57018;50.278;19.134;2022-11-21T00:07:43;65.25;52.75;33.25
69746;PMS7003;57018;50.278;19.134;2022-11-21T00:10:11;62.75;48.75;29.75
69746;PMS7003;57018;50.278;19.134;2022-11-21T00:12:37;63.50;48.25;30.25
69746;PMS7003;57018;50.278;19.134;2022-11-21T00:15:04;63.50;52.50;33.75
69746;PMS7003;57018;50.278;19.134;2022-11-21T00:17:30;54.50;45.00;28.75
69746;PMS7003;57018;50.278;19.134;2022-11-21T00:19:56;65.25;50.50;31.00
69746;PMS7003;57018;50.278;19.134;2022-11-21T00:22:23;72.75;54.25;34.25
69746;PMS7003;57018;50.278;19.134;2022-11-21T00:24:48;66.00;52.25;31.50
69746;PMS7003;57018;50.278;19.134;2022-11-21T00:27:15;64.50;50.50;32.75
69746;PMS7003;57018;50.278;19.134;2022-11-21T00:29:40;62.25;49.75;30.25
69746;PMS7003;57018;50.278;19.134;2022-11-21T00:32:06;55.75;45.75;28.25
69746;PMS7003;57018;50.278;19.134;2022-11-21T00:34:32;62.50;51.50;31.75
69746;PMS7003;57018;50.278;19.134;2022-11-21T00:36:58;58.50;48.25;31.00
69746;PMS7003;57018;50.278;19.134;2022-11-21T00:39:24;58.25;48.00;32.00
69746;PMS7003;57018;50.278;19.134;2022-11-21T00:41:50;58.50;42.50;28.25
69746;PMS7003;57018;50.278;19.134;2022-11-21T00:44:16;63.00;51.75;30.50
69746;PMS7003;57018;50.278;19.134;2022-11-21T00:46:42;65.25;50.75;31.00
69746;PMS7003;57018;50.278;19.134;2022-11-21T00:49:08;69.50;52.75;33.75
69746;PMS7003;57018;50.278;19.134;2022-11-21T00:51:34;73.50;57.00;34.00
69746;PMS7003;57018;50.278;19.134;2022-11-21T00:54:00;72.00;54.00;32.25
69746;PMS7003;57018;50.278;19.134;2022-11-21T00:56:26;66.50;51.50;31.00
69746;PMS7003;57018;50.278;19.134;2022-11-21T00:58:52;68.75;53.00;33.00
69746;PMS7003;57018;50.278;19.134;2022-11-21T01:01:18;66.25;52.75;32.50
69746;PMS7003;57018;50.278;19.134;2022-11-21T01:03:44;66.25;54.00;33.25
69746;PMS7003;57018;50.278;19.134;2022-11-21T01:06:11;62.25;49.25;31.00
69746;PMS7003;57018;50.278;19.134;2022-11-21T01:08:40;61.75;50.00;30.50
69746;PMS7003;57018;50.278;19.134;2022-11-21T01:11:16;64.25;49.00;31.50
69746;PMS7003;57018;50.278;19.134;2022-11-21T01:13:40;61.25;50.25;31.50
69746;PMS7003;57018;50.278;19.134;2022-11-21T01:16:08;66.50;53.75;32.50
69746;PMS7003;57018;50.278;19.134;2022-11-21T01:18:35;62.50;50.00;33.25
69746;PMS7003;57018;50.278;19.134;2022-11-21T01:21:07;66.25;54.00;32.75
69746;PMS7003;57018;50.278;19.134;2022-11-21T01:23:31;63.50;51.25;32.75
69746;PMS7003;57018;50.278;19.134;2022-11-21T01:26:01;66.00;52.00;31.25
69746;PMS7003;57018;50.278;19.134;2022-11-21T01:28:30;61.50;48.00;30.75
69746;PMS7003;57018;50.278;19.134;2022-11-21T01:31:06;58.50;46.00;29.25
69746;PMS7003;57018;50.278;19.134;2022-11-21T01:33:35;62.00;49.50;33.25
69746;PMS7003;57018;50.278;19.134;2022-11-21T01:36:08;58.25;46.25;30.75
69746;PMS7003;57018;50.278;19.134;2022-11-21T01:38:44;63.50;52.25;34.00
69746;PMS7003;57018;50.278;19.134;2022-11-21T01:41:13;73.25;53.50;34.25
69746;PMS7003;57018;50.278;19.134;2022-11-21T01:43:41;65.00;53.00;32.25
69746;PMS7003;57018;50.278;19.134;2022-11-21T01:51:24;56.75;46.50;31.00
69746;PMS7003;57018;50.278;19.134;2022-11-21T01:54:02;64.50;51.00;30.75
69746;PMS7003;57018;50.278;19.134;2022-11-21T01:56:32;60.50;50.25;31.50
69746;PMS7003;57018;50.278;19.134;2022-11-21T01:59:00;55.00;46.50;27.00
69746;PMS7003;57018;50.278;19.134;2022-11-21T02:01:29;65.50;50.50;32.75
69746;PMS7003;57018;50.278;19.134;2022-11-21T02:03:59;63.75;52.50;31.75
69746;PMS7003;57018;50.278;19.134;2022-11-21T02:06:27;60.50;50.25;33.25
69746;PMS7003;57018;50.278;19.134;2022-11-21T02:08:55;72.00;56.25;35.00
69746;PMS7003;57018;50.278;19.134;2022-11-21T02:11:28;65.00;54.00;35.75
69746;PMS7003;57018;50.278;19.134;2022-11-21T02:13:56;68.00;53.50;35.50
69746;PMS7003;57018;50.278;19.134;2022-11-21T02:16:23;71.25;54.75;34.50
69746;PMS7003;57018;50.278;19.134;2022-11-21T02:18:50;65.00;53.00;33.25
69746;PMS7003;57018;50.278;19.134;2022-11-21T02:21:20;67.75;53.50;34.75
69746;PMS7003;57018;50.278;19.134;2022-11-21T02:26:27;70.00;55.25;32.00
69746;PMS7003;57018;50.278;19.134;2022-11-21T02:28:54;72.25;55.75;34.25
69746;PMS7003;57018;50.278;19.134;2022-11-21T02:31:21;64.75;54.50;32.25
69746;PMS7003;57018;50.278;19.134;2022-11-21T02:33:47;66.50;55.25;34.00
69746;PMS7003;57018;50.278;19.134;2022-11-21T02:39:06;72.50;56.50;34.25
69746;PMS7003;57018;50.278;19.134;2022-11-21T02:41:34;66.75;55.25;34.25
69746;PMS7003;57018;50.278;19.134;2022-11-21T02:44:05;70.25;57.25;35.25
69746;PMS7003;57018;50.278;19.134;2022-11-21T02:46:33;71.50;54.00;36.25
69746;PMS7003;57018;50.278;19.134;2022-11-21T02:49:02;75.50;56.25;35.50
69746;PMS7003;57018;50.278;19.134;2022-11-21T02:51:30;63.25;50.25;33.00
69746;PMS7003;57018;50.278;19.134;2022-11-21T02:53:56;67.50;55.50;34.75
69746;PMS7003;57018;50.278;19.134;2022-11-21T02:56:22;64.25;51.25;33.75
69746;PMS7003;57018;50.278;19.134;2022-11-21T02:58:48;67.25;55.00;33.75
69746;PMS7003;57018;50.278;19.134;2022-11-21T03:01:14;76.75;54.75;34.00
69746;PMS7003;57018;50.278;19.134;2022-11-21T03:03:40;71.50;55.25;36.50
69746;PMS7003;57018;50.278;19.134;2022-11-21T03:06:06;55.50;46.00;24.00
69746;PMS7003;57018;50.278;19.134;2022-11-21T03:08:32;69.25;53.50;33.25
69746;PMS7003;57018;50.278;19.134;2022-11-21T03:10:58;75.50;56.00;36.25
69746;PMS7003;57018;50.278;19.134;2022-11-21T03:13:24;74.75;57.75;35.50
69746;PMS7003;57018;50.278;19.134;2022-11-21T03:15:50;75.25;57.50;35.75
69746;PMS7003;57018;50.278;19.134;2022-11-21T03:18:16;70.25;56.75;36.25
69746;PMS7003;57018;50.278;19.134;2022-11-21T03:20:42;81.00;64.00;40.25
69746;PMS7003;57018;50.278;19.134;2022-11-21T03:23:08;76.50;62.50;39.50
69746;PMS7003;57018;50.278;19.134;2022-11-21T03:25:34;81.75;62.75;39.75
69746;PMS7003;57018;50.278;19.134;2022-11-21T03:28:00;89.75;67.00;40.25
69746;PMS7003;57018;50.278;19.134;2022-11-21T03:30:26;83.50;66.00;43.75
69746;PMS7003;57018;50.278;19.134;2022-11-21T03:32:57;90.25;70.25;45.25
69746;PMS7003;57018;50.278;19.134;2022-11-21T03:35:21;84.25;66.00;43.00
69746;PMS7003;57018;50.278;19.134;2022-11-21T03:37:47;98.50;74.75;48.25
69746;PMS7003;57018;50.278;19.134;2022-11-21T03:40:13;93.00;75.00;47.25
69746;PMS7003;57018;50.278;19.134;2022-11-21T03:42:39;97.75;75.25;49.50
69746;PMS7003;57018;50.278;19.134;2022-11-21T03:45:06;97.00;77.00;46.25
69746;PMS7003;57018;50.278;19.134;2022-11-21T03:47:33;90.25;73.25;45.50
69746;PMS7003;57018;50.278;19.134;2022-11-21T03:49:59;103.00;83.00;50.25
69746;PMS7003;57018;50.278;19.134;2022-11-21T03:52:25;90.50;69.25;44.25
69746;PMS7003;57018;50.278;19.134;2022-11-21T03:54:51;82.75;65.00;40.25
69746;PMS7003;57018;50.278;19.134;2022-11-21T03:57:17;85.50;66.75;42.00
69746;PMS7003;57018;50.278;19.134;2022-11-21T03:59:43;77.00;59.75;39.75
69746;PMS7003;57018;50.278;19.134;2022-11-21T04:02:09;81.25;63.25;38.75
69746;PMS7003;57018;50.278;19.134;2022-11-21T04:04:35;75.50;64.50;42.25
69746;PMS7003;57018;50.278;19.134;2022-11-21T04:07:01;85.75;67.75;41.50
69746;PMS7003;57018;50.278;19.134;2022-11-21T04:09:27;89.25;69.00;42.75
69746;PMS7003;57018;50.278;19.134;2022-11-21T04:11:53;81.75;61.25;37.25
69746;PMS7003;57018;50.278;19.134;2022-11-21T04:14:19;81.00;60.75;38.75
69746;PMS7003;57018;50.278;19.134;2022-11-21T04:16:45;80.50;62.75;41.00
69746;PMS7003;57018;50.278;19.134;2022-11-21T04:19:11;82.00;63.50;39.25
69746;PMS7003;57018;50.278;19.134;2022-11-21T04:21:37;82.00;63.00;40.25
69746;PMS7003;57018;50.278;19.134;2022-11-21T04:24:03;78.25;64.50;41.75
69746;PMS7003;57018;50.278;19.134;2022-11-21T04:26:30;73.00;60.00;40.25
69746;PMS7003;57018;50.278;19.134;2022-11-21T04:28:56;75.25;62.25;38.75
69746;PMS7003;57018;50.278;19.134;2022-11-21T04:31:22;83.75;63.50;40.25
69746;PMS7003;57018;50.278;19.134;2022-11-21T04:33:48;74.50;59.75;37.25
69746;PMS7003;57018;50.278;19.134;2022-11-21T04:36:14;67.25;54.00;32.75
69746;PMS7003;57018;50.278;19.134;2022-11-21T04:38:40;73.00;58.50;37.25
69746;PMS7003;57018;50.278;19.134;2022-11-21T04:41:06;72.00;57.50;38.25
69746;PMS7003;57018;50.278;19.134;2022-11-21T04:43:32;72.50;54.25;34.25
69746;PMS7003;57018;50.278;19.134;2022-11-21T04:45:58;71.50;57.50;37.25
69746;PMS7003;57018;50.278;19.134;2022-11-21T04:48:24;83.00;64.25;37.00
69746;PMS7003;57018;50.278;19.134;2022-11-21T04:50:51;85.75;67.00;40.75
69746;PMS7003;57018;50.278;19.134;2022-11-21T04:53:17;84.50;65.25;42.00
69746;PMS7003;57018;50.278;19.134;2022-11-21T04:55:42;84.25;66.00;40.25
69746;PMS7003;57018;50.278;19.134;2022-11-21T04:58:09;77.25;60.25;41.25
69746;PMS7003;57018;50.278;19.134;2022-11-21T05:00:35;79.75;61.75;41.00
69746;PMS7003;57018;50.278;19.134;2022-11-21T05:03:02;77.25;61.50;38.50
69746;PMS7003;57018;50.278;19.134;2022-11-21T05:05:29;73.50;57.25;38.25
69746;PMS7003;57018;50.278;19.134;2022-11-21T05:07:55;84.75;64.25;39.00
69746;PMS7003;57018;50.278;19.134;2022-11-21T05:10:21;75.25;56.75;36.25
69746;PMS7003;57018;50.278;19.134;2022-11-21T05:12:47;74.50;59.50;39.00
69746;PMS7003;57018;50.278;19.134;2022-11-21T05:15:31;89.25;67.50;42.00
69746;PMS7003;57018;50.278;19.134;2022-11-21T05:17:58;85.50;65.25;41.00
69746;PMS7003;57018;50.278;19.134;2022-11-21T05:20:24;82.00;63.50;40.75
69746;PMS7003;57018;50.278;19.134;2022-11-21T05:22:50;86.00;67.50;43.75
69746;PMS7003;57018;50.278;19.134;2022-11-21T05:25:16;83.00;65.00;41.00
69746;PMS7003;57018;50.278;19.134;2022-11-21T05:27:43;63.75;49.25;14.50
69746;PMS7003;57018;50.278;19.134;2022-11-21T05:30:09;89.25;68.00;42.75
69746;PMS7003;57018;50.278;19.134;2022-11-21T05:32:36;89.75;69.25;43.00
69746;PMS7003;57018;50.278;19.134;2022-11-21T05:35:02;94.75;70.00;45.25
69746;PMS7003;57018;50.278;19.134;2022-11-21T05:37:28;91.00;68.00;45.00
69746;PMS7003;57018;50.278;19.134;2022-11-21T05:39:54;84.50;64.75;41.00
69746;PMS7003;57018;50.278;19.134;2022-11-21T05:42:20;96.00;73.50;44.75
69746;PMS7003;57018;50.278;19.134;2022-11-21T05:44:48;88.25;67.25;43.25
69746;PMS7003;57018;50.278;19.134;2022-11-21T05:47:14;94.50;73.50;45.75
69746;PMS7003;57018;50.278;19.134;2022-11-21T05:49:40;87.50;69.75;42.75
69746;PMS7003;57018;50.278;19.134;2022-11-21T05:52:06;97.00;73.75;46.75
69746;PMS7003;57018;50.278;19.134;2022-11-21T05:54:32;92.25;71.00;45.75
69746;PMS7003;57018;50.278;19.134;2022-11-21T05:56:58;100.50;73.75;48.25
69746;PMS7003;57018;50.278;19.134;2022-11-21T05:59:25;89.00;68.00;45.25
69746;PMS7003;57018;50.278;19.134;2022-11-21T06:01:51;95.75;73.75;46.25
69746;PMS7003;57018;50.278;19.134;2022-11-21T06:04:35;90.75;70.75;45.75
69746;PMS7003;57018;50.278;19.134;2022-11-21T06:07:01;91.25;70.00;45.50
69746;PMS7003;57018;50.278;19.134;2022-11-21T06:09:29;100.25;74.75;46.25
69746;PMS7003;57018;50.278;19.134;2022-11-21T06:11:56;93.00;71.00;42.50
69746;PMS7003;57018;50.278;19.134;2022-11-21T06:14:22;91.25;67.50;44.75
69746;PMS7003;57018;50.278;19.134;2022-11-21T06:16:48;97.00;72.00;47.00
69746;PMS7003;57018;50.278;19.134;2022-11-21T06:19:15;95.75;73.00;45.25
69746;PMS7003;57018;50.278;19.134;2022-11-21T06:21:41;94.75;73.25;47.25
69746;PMS7003;57018;50.278;19.134;2022-11-21T06:24:07;97.75;76.25;47.25
69746;PMS7003;57018;50.278;19.134;2022-11-21T06:26:33;97.50;74.25;46.00
69746;PMS7003;57018;50.278;19.134;2022-11-21T06:28:59;102.75;73.50;47.75
69746;PMS7003;57018;50.278;19.134;2022-11-21T06:31:25;101.50;76.25;47.50
69746;PMS7003;57018;50.278;19.134;2022-11-21T06:33:53;100.75;79.25;48.25
69746;PMS7003;57018;50.278;19.134;2022-11-21T06:36:21;106.50;81.00;49.00
69746;PMS7003;57018;50.278;19.134;2022-11-21T06:38:47;42.00;30.25;0.00
69746;PMS7003;57018;50.278;19.134;2022-11-21T06:41:17;99.00;73.75;47.75
69746;PMS7003;57018;50.278;19.134;2022-11-21T06:43:45;100.75;80.25;48.25
69746;PMS7003;57018;50.278;19.134;2022-11-21T06:46:11;95.50;75.00;46.25
69746;PMS7003;57018;50.278;19.134;2022-11-21T06:48:39;107.50;85.25;53.00
69746;PMS7003;57018;50.278;19.134;2022-11-21T06:51:07;104.25;76.75;47.25
69746;PMS7003;57018;50.278;19.134;2022-11-21T06:53:35;105.50;88.00;50.25
69746;PMS7003;57018;50.278;19.134;2022-11-21T06:56:01;101.00;80.75;50.25
69746;PMS7003;57018;50.278;19.134;2022-11-21T06:58:27;106.25;80.50;48.25
69746;PMS7003;57018;50.278;19.134;2022-11-21T07:00:54;96.75;74.50;45.00
69746;PMS7003;57018;50.278;19.134;2022-11-21T07:03:20;97.00;76.75;48.25
69746;PMS7003;57018;50.278;19.134;2022-11-21T07:05:47;103.75;82.75;48.25
69746;PMS7003;57018;50.278;19.134;2022-11-21T07:08:15;105.00;84.25;51.50
69746;PMS7003;57018;50.278;19.134;2022-11-21T07:10:41;105.50;79.50;47.75
69746;PMS7003;57018;50.278;19.134;2022-11-21T07:13:09;101.00;75.75;46.00
69746;PMS7003;57018;50.278;19.134;2022-11-21T07:15:51;105.25;81.75;50.00
69746;PMS7003;57018;50.278;19.134;2022-11-21T07:18:19;99.00;75.00;47.25
69746;PMS7003;57018;50.278;19.134;2022-11-21T07:20:46;94.25;75.00;45.50
69746;PMS7003;57018;50.278;19.134;2022-11-21T07:23:13;100.00;75.25;48.25
69746;PMS7003;57018;50.278;19.134;2022-11-21T07:25:40;97.50;75.75;48.00
69746;PMS7003;57018;50.278;19.134;2022-11-21T07:28:07;92.00;72.75;46.25
69746;PMS7003;57018;50.278;19.134;2022-11-21T07:30:34;94.00;74.25;47.75
69746;PMS7003;57018;50.278;19.134;2022-11-21T07:33:02;93.50;71.75;47.00
69746;PMS7003;57018;50.278;19.134;2022-11-21T07:35:30;93.50;71.50;45.00
69746;PMS7003;57018;50.278;19.134;2022-11-21T07:37:57;92.75;71.50;44.75
69746;PMS7003;57018;50.278;19.134;2022-11-21T07:40:23;95.00;73.75;46.75
69746;PMS7003;57018;50.278;19.134;2022-11-21T07:42:49;101.50;79.25;47.50
69746;PMS7003;57018;50.278;19.134;2022-11-21T07:45:15;98.75;75.50;48.25
69746;PMS7003;57018;50.278;19.134;2022-11-21T07:47:42;92.50;72.00;45.25
69746;PMS7003;57018;50.278;19.134;2022-11-21T07:50:09;105.75;83.75;50.25
69746;PMS7003;57018;50.278;19.134;2022-11-21T07:52:36;98.50;79.50;48.75
69746;PMS7003;57018;50.278;19.134;2022-11-21T07:55:03;100.75;81.25;48.50
69746;PMS7003;57018;50.278;19.134;2022-11-21T07:57:30;102.50;80.00;46.00
69746;PMS7003;57018;50.278;19.134;2022-11-21T07:59:57;96.25;75.50;46.50
69746;PMS7003;57018;50.278;19.134;2022-11-21T08:02:25;95.25;73.25;45.75
69746;PMS7003;57018;50.278;19.134;2022-11-21T08:04:52;93.75;72.75;46.75
69746;PMS7003;57018;50.278;19.134;2022-11-21T08:07:20;98.25;76.50;47.25
69746;PMS7003;57018;50.278;19.134;2022-11-21T08:09:47;89.00;70.25;45.25
69746;PMS7003;57018;50.278;19.134;2022-11-21T08:12:13;90.00;71.00;46.00
69746;PMS7003;57018;50.278;19.134;2022-11-21T08:14:40;90.25;66.50;41.25
69746;PMS7003;57018;50.278;19.134;2022-11-21T08:17:06;95.75;71.75;44.75
69746;PMS7003;57018;50.278;19.134;2022-11-21T08:19:33;92.50;70.00;44.25
69746;PMS7003;57018;50.278;19.134;2022-11-21T08:21:59;84.50;64.25;39.25
69746;PMS7003;57018;50.278;19.134;2022-11-21T08:24:26;85.00;64.50;43.50
69746;PMS7003;57018;50.278;19.134;2022-11-21T08:26:52;92.75;68.00;41.50
69746;PMS7003;57018;50.278;19.134;2022-11-21T08:29:18;93.00;69.75;45.25
69746;PMS7003;57018;50.278;19.134;2022-11-21T08:31:44;93.50;70.50;43.50
69746;PMS7003;57018;50.278;19.134;2022-11-21T08:34:10;85.00;66.50;43.25
69746;PMS7003;57018;50.278;19.134;2022-11-21T08:36:37;97.00;69.00;44.50
69746;PMS7003;57018;50.278;19.134;2022-11-21T08:39:03;91.00;68.75;44.00
69746;PMS7003;57018;50.278;19.134;2022-11-21T08:41:29;89.75;66.50;40.25
69746;PMS7003;57018;50.278;19.134;2022-11-21T08:44:14;92.25;72.25;43.50
69746;PMS7003;57018;50.278;19.134;2022-11-21T08:46:40;90.25;71.75;44.50
69746;PMS7003;57018;50.278;19.134;2022-11-21T08:49:06;92.75;71.25;45.00
69746;PMS7003;57018;50.278;19.134;2022-11-21T08:51:33;93.25;72.75;45.50
69746;PMS7003;57018;50.278;19.134;2022-11-21T08:53:59;94.25;74.25;45.00
69746;PMS7003;57018;50.278;19.134;2022-11-21T08:56:26;90.50;72.00;42.25
69746;PMS7003;57018;50.278;19.134;2022-11-21T08:58:53;90.25;70.75;45.25
69746;PMS7003;57018;50.278;19.134;2022-11-21T09:01:20;85.00;65.25;41.25
69746;PMS7003;57018;50.278;19.134;2022-11-21T09:03:47;91.50;72.75;42.50
69746;PMS7003;57018;50.278;19.134;2022-11-21T09:06:13;91.50;71.75;44.75
69746;PMS7003;57018;50.278;19.134;2022-11-21T09:08:39;84.00;65.00;42.00
69746;PMS7003;57018;50.278;19.134;2022-11-21T09:11:06;87.50;67.50;43.50
69746;PMS7003;57018;50.278;19.134;2022-11-21T09:13:34;83.50;66.00;42.25
69746;PMS7003;57018;50.278;19.134;2022-11-21T09:16:01;85.75;65.25;44.00
69746;PMS7003;57018;50.278;19.134;2022-11-21T09:18:46;82.75;64.25;42.50
69746;PMS7003;57018;50.278;19.134;2022-11-21T09:21:16;88.00;69.00;43.00
69746;PMS7003;57018;50.278;19.134;2022-11-21T09:23:43;79.50;63.50;39.00
69746;PMS7003;57018;50.278;19.134;2022-11-21T09:26:10;78.50;59.25;41.25
69746;PMS7003;57018;50.278;19.134;2022-11-21T09:28:36;91.50;75.25;44.00
69746;PMS7003;57018;50.278;19.134;2022-11-21T09:31:03;90.50;71.75;43.75
69746;PMS7003;57018;50.278;19.134;2022-11-21T09:33:30;88.75;67.00;43.75
69746;PMS7003;57018;50.278;19.134;2022-11-21T09:35:57;86.00;68.25;42.50
69746;PMS7003;57018;50.278;19.134;2022-11-21T09:38:24;87.75;69.75;43.25
69746;PMS7003;57018;50.278;19.134;2022-11-21T09:40:53;85.50;66.25;42.25
69746;PMS7003;57018;50.278;19.134;2022-11-21T09:51:22;89.25;73.00;46.00
69746;PMS7003;57018;50.278;19.134;2022-11-21T09:56:26;88.50;68.25;44.25
69746;PMS7003;57018;50.278;19.134;2022-11-21T10:01:35;89.00;70.50;44.00
69746;PMS7003;57018;50.278;19.134;2022-11-21T10:06:54;91.50;72.75;46.25
69746;PMS7003;57018;50.278;19.134;2022-11-21T10:23:27;84.50;64.75;41.25
69746;PMS7003;57018;50.278;19.134;2022-11-21T10:25:56;94.50;77.50;46.25
69746;PMS7003;57018;50.278;19.134;2022-11-21T10:28:37;80.00;61.50;40.00
69746;PMS7003;57018;50.278;19.134;2022-11-21T10:31:01;89.00;68.75;41.50
69746;PMS7003;57018;50.278;19.134;2022-11-21T10:33:32;84.75;63.75;41.50
69746;PMS7003;57018;50.278;19.134;2022-11-21T10:36:04;87.00;67.75;41.00
69746;PMS7003;57018;50.278;19.134;2022-11-21T10:38:40;88.25;68.00;43.25
69746;PMS7003;57018;50.278;19.134;2022-11-21T10:44:22;84.75;66.50;41.25
69746;PMS7003;57018;50.278;19.134;2022-11-21T10:47:22;83.00;64.25;41.25
69746;PMS7003;57018;50.278;19.134;2022-11-21T10:50:09;84.50;68.25;43.00
69746;PMS7003;57018;50.278;19.134;2022-11-21T10:52:49;83.75;65.00;42.00
69746;PMS7003;57018;50.278;19.134;2022-11-21T10:55:58;86.75;68.25;44.75
69746;PMS7003;57018;50.278;19.134;2022-11-21T10:58:46;85.75;66.25;42.50
69746;PMS7003;57018;50.278;19.134;2022-11-21T11:06:43;82.50;63.75;40.25
69746;PMS7003;57018;50.278;19.134;2022-11-21T11:09:28;77.50;61.00;37.75
69746;PMS7003;57018;50.278;19.134;2022-11-21T11:14:49;75.50;60.00;41.25
69746;PMS7003;57018;50.278;19.134;2022-11-21T11:17:27;83.50;65.25;41.50
69746;PMS7003;57018;50.278;19.134;2022-11-21T11:20:04;79.00;61.75;41.25
69746;PMS7003;57018;50.278;19.134;2022-11-21T11:22:34;84.00;69.50;44.50
69746;PMS7003;57018;50.278;19.134;2022-11-21T11:25:02;83.25;71.25;42.00
69746;PMS7003;57018;50.278;19.134;2022-11-21T11:27:29;84.50;70.25;44.00
69746;PMS7003;57018;50.278;19.134;2022-11-21T11:29:55;91.75;78.00;46.00
69746;PMS7003;57018;50.278;19.134;2022-11-21T11:32:23;87.25;74.00;49.25
69746;PMS7003;57018;50.278;19.134;2022-11-21T11:37:25;83.00;67.50;41.25
69746;PMS7003;57018;50.278;19.134;2022-11-21T11:48:41;81.00;62.25;39.00
69746;PMS7003;57018;50.278;19.134;2022-11-21T11:51:15;74.00;56.00;35.25
69746;PMS7003;57018;50.278;19.134;2022-11-21T11:53:47;74.75;60.25;39.00
69746;PMS7003;57018;50.278;19.134;2022-11-21T11:56:16;87.75;72.00;43.50
69746;PMS7003;57018;50.278;19.134;2022-11-21T11:58:53;79.00;60.00;39.00
69746;PMS7003;57018;50.278;19.134;2022-11-21T12:01:28;81.50;61.50;39.00
69746;PMS7003;57018;50.278;19.134;2022-11-21T12:06:42;75.00;59.00;37.75
69746;PMS7003;57018;50.278;19.134;2022-11-21T12:09:23;80.50;61.75;39.75
69746;PMS7003;57018;50.278;19.134;2022-11-21T12:12:12;77.75;58.50;36.00
69746;PMS7003;57018;50.278;19.134;2022-11-21T12:14:43;73.25;57.50;38.25
69746;PMS7003;57018;50.278;19.134;2022-11-21T12:17:37;85.00;62.50;39.50
69746;PMS7003;57018;50.278;19.134;2022-11-21T12:20:10;82.50;65.00;40.25
69746;PMS7003;57018;50.278;19.134;2022-11-21T12:22:34;73.00;58.75;39.00
69746;PMS7003;57018;50.278;19.134;2022-11-21T12:25:00;83.25;69.00;42.50
69746;PMS7003;57018;50.278;19.134;2022-11-21T12:27:27;81.00;64.50;39.75
69746;PMS7003;57018;50.278;19.134;2022-11-21T12:30:16;78.25;59.75;38.75
69746;PMS7003;57018;50.278;19.134;2022-11-21T12:35:30;82.25;64.50;40.25
69746;PMS7003;57018;50.278;19.134;2022-11-21T12:49:51;77.50;60.25;38.50
69746;PMS7003;57018;50.278;19.134;2022-11-21T12:52:47;83.25;66.75;42.50
69746;PMS7003;57018;50.278;19.134;2022-11-21T12:55:36;84.25;70.25;43.00
69746;PMS7003;57018;50.278;19.134;2022-11-21T13:06:14;84.25;68.75;41.00
69746;PMS7003;57018;50.278;19.134;2022-11-21T13:08:42;85.00;67.75;41.25
69746;PMS7003;57018;50.278;19.134;2022-11-21T13:14:20;88.50;73.00;46.00
69746;PMS7003;57018;50.278;19.134;2022-11-21T13:30:50;85.50;72.00;43.75
69746;PMS7003;57018;50.278;19.134;2022-11-21T13:52:34;82.75;67.00;42.75
69746;PMS7003;57018;50.278;19.134;2022-11-21T13:58:21;84.00;66.25;42.25
69746;PMS7003;57018;50.278;19.134;2022-11-21T14:06:38;89.75;75.00;47.00
69746;PMS7003;57018;50.278;19.134;2022-11-21T14:11:48;75.50;55.00;33.00
69746;PMS7003;57018;50.278;19.134;2022-11-21T14:19:50;93.25;81.50;48.50
69746;PMS7003;57018;50.278;19.134;2022-11-21T14:25:07;84.75;72.75;45.50
69746;PMS7003;57018;50.278;19.134;2022-11-21T14:27:36;93.75;81.50;51.00
69746;PMS7003;57018;50.278;19.134;2022-11-21T14:30:04;92.00;80.75;49.75
69746;PMS7003;57018;50.278;19.134;2022-11-21T14:32:30;92.50;85.50;53.50
69746;PMS7003;57018;50.278;19.134;2022-11-21T14:37:44;84.25;67.25;43.50
69746;PMS7003;57018;50.278;19.134;2022-11-21T14:40:11;73.25;58.75;38.50
69746;PMS7003;57018;50.278;19.134;2022-11-21T14:42:39;67.00;53.00;34.50
69746;PMS7003;57018;50.278;19.134;2022-11-21T14:45:07;55.75;43.75;28.75
69746;PMS7003;57018;50.278;19.134;2022-11-21T14:47:35;39.25;35.25;24.75
69746;PMS7003;57018;50.278;19.134;2022-11-21T14:50:20;58.25;45.00;27.00
69746;PMS7003;57018;50.278;19.134;2022-11-21T14:52:34;49.25;41.75;27.00
69746;PMS7003;57018;50.278;19.134;2022-11-21T14:55:02;40.00;34.00;24.25
69746;PMS7003;57018;50.278;19.134;2022-11-21T14:57:31;50.75;40.25;27.25
69746;PMS7003;57018;50.278;19.134;2022-11-21T14:59:59;46.75;38.25;26.00
69746;PMS7003;57018;50.278;19.134;2022-11-21T15:02:31;47.00;40.25;27.00
69746;PMS7003;57018;50.278;19.134;2022-11-21T15:04:59;44.50;38.00;24.75
69746;PMS7003;57018;50.278;19.134;2022-11-21T15:07:34;37.75;31.75;20.25
69746;PMS7003;57018;50.278;19.134;2022-11-21T15:10:01;37.25;32.50;20.00
69746;PMS7003;57018;50.278;19.134;2022-11-21T15:17:58;44.50;36.50;24.75
69746;PMS7003;57018;50.278;19.134;2022-11-21T15:20:26;38.25;34.50;24.25
69746;PMS7003;57018;50.278;19.134;2022-11-21T15:22:55;47.50;38.75;26.50
69746;PMS7003;57018;50.278;19.134;2022-11-21T15:25:31;53.75;43.75;27.00
69746;PMS7003;57018;50.278;19.134;2022-11-21T15:30:29;46.50;40.00;26.75
69746;PMS7003;57018;50.278;19.134;2022-11-21T15:33:00;59.50;47.50;30.25
69746;PMS7003;57018;50.278;19.134;2022-11-21T15:46:18;60.25;48.75;33.25
69746;PMS7003;57018;50.278;19.134;2022-11-21T15:48:50;65.00;50.75;31.25
69746;PMS7003;57018;50.278;19.134;2022-11-21T15:51:15;62.75;49.75;32.50
69746;PMS7003;57018;50.278;19.134;2022-11-21T15:53:42;70.75;54.50;36.75
69746;PMS7003;57018;50.278;19.134;2022-11-21T15:56:09;60.50;50.25;33.25
69746;PMS7003;57018;50.278;19.134;2022-11-21T15:58:38;35.50;27.25;16.50
69746;PMS7003;57018;50.278;19.134;2022-11-21T16:01:05;56.50;47.00;32.00
69746;PMS7003;57018;50.278;19.134;2022-11-21T16:03:31;55.00;44.00;28.25
69746;PMS7003;57018;50.278;19.134;2022-11-21T16:05:57;62.00;48.00;32.75
69746;PMS7003;57018;50.278;19.134;2022-11-21T16:08:23;56.50;47.00;32.25
69746;PMS7003;57018;50.278;19.134;2022-11-21T16:10:49;57.25;48.00;31.75
69746;PMS7003;57018;50.278;19.134;2022-11-21T16:13:15;58.25;47.75;31.75
69746;PMS7003;57018;50.278;19.134;2022-11-21T16:15:42;54.50;45.25;31.50
69746;PMS7003;57018;50.278;19.134;2022-11-21T16:18:08;57.25;46.00;31.00
69746;PMS7003;57018;50.278;19.134;2022-11-21T16:20:34;59.75;46.75;32.25
69746;PMS7003;57018;50.278;19.134;2022-11-21T16:23:00;62.00;48.50;30.25
69746;PMS7003;57018;50.278;19.134;2022-11-21T16:25:26;71.50;56.25;36.00
69746;PMS7003;57018;50.278;19.134;2022-11-21T16:27:52;63.75;51.50;34.00